sensor_id;sensor_type;location;lat;lon;timestamp;pressure;altitude;pressure_sealevel;temperature;humidity
79413;BME280;68863;49.528;11.010;2024-02-15T00:00:35;98730.94;;;12.17;69.49
79413;BME280;68863;49.528;11.010;2024-02-15T00:01:36;98730.75;;;12.07;69.33
79413;BME280;68863;49.528;11.010;2024-02-15T00:02:36;98739.88;;;12.27;69.00
79413;BME280;68863;49.528;11.010;2024-02-15T00:03:36;98732.72;;;12.29;69.12
79413;BME280;68863;49.528;11.010;2024-02-15T00:04:37;98741.00;;;12.36;68.51
79413;BME280;68863;49.528;11.010;2024-02-15T00:05:37;98730.38;;;12.24;68.93
79413;BME280;68863;49.528;11.010;2024-02-15T00:06:37;98738.00;;;11.91;69.98
79413;BME280;68863;49.528;11.010;2024-02-15T00:07:38;98728.97;;;11.95;70.24
79413;BME280;68863;49.528;11.010;2024-02-15T00:08:39;98729.47;;;12.00;70.04
79413;BME280;68863;49.528;11.010;2024-02-15T00:09:39;98730.63;;;12.09;69.75
79413;BME280;68863;49.528;11.010;2024-02-15T00:10:39;98724.81;;;12.16;69.51
79413;BME280;68863;49.528;11.010;2024-02-15T00:11:40;98725.25;;;12.23;69.37
79413;BME280;68863;49.528;11.010;2024-02-15T00:12:40;98726.19;;;12.22;68.99
79413;BME280;68863;49.528;11.010;2024-02-15T00:13:41;98725.38;;;12.21;69.19
79413;BME280;68863;49.528;11.010;2024-02-15T00:14:41;98726.50;;;12.30;68.99
79413;BME280;68863;49.528;11.010;2024-02-15T00:15:42;98721.75;;;12.35;68.64
79413;BME280;68863;49.528;11.010;2024-02-15T00:16:43;98722.72;;;12.09;69.65
79413;BME280;68863;49.528;11.010;2024-02-15T00:17:43;98723.34;;;12.12;69.56
79413;BME280;68863;49.528;11.010;2024-02-15T00:18:43;98729.56;;;12.11;69.53
79413;BME280;68863;49.528;11.010;2024-02-15T00:19:45;98727.47;;;12.04;69.70
79413;BME280;68863;49.528;11.010;2024-02-15T00:20:46;98725.47;;;12.07;69.74
79413;BME280;68863;49.528;11.010;2024-02-15T00:21:47;98724.31;;;12.11;69.72
79413;BME280;68863;49.528;11.010;2024-02-15T00:22:48;98722.09;;;12.18;69.61
79413;BME280;68863;49.528;11.010;2024-02-15T00:23:48;98722.19;;;12.29;68.94
79413;BME280;68863;49.528;11.010;2024-02-15T00:24:49;98725.44;;;12.20;69.28
79413;BME280;68863;49.528;11.010;2024-02-15T00:25:49;98711.69;;;12.04;69.95
79413;BME280;68863;49.528;11.010;2024-02-15T00:26:50;98720.63;;;12.14;69.47
79413;BME280;68863;49.528;11.010;2024-02-15T00:27:50;98723.03;;;12.17;69.52
79413;BME280;68863;49.528;11.010;2024-02-15T00:28:50;98716.31;;;12.25;69.16
79413;BME280;68863;49.528;11.010;2024-02-15T00:29:51;98722.19;;;12.29;68.94
79413;BME280;68863;49.528;11.010;2024-02-15T00:30:51;98715.44;;;12.38;68.62
79413;BME280;68863;49.528;11.010;2024-02-15T00:31:51;98716.06;;;12.41;68.50
79413;BME280;68863;49.528;11.010;2024-02-15T00:32:52;98718.78;;;12.40;68.63
79413;BME280;68863;49.528;11.010;2024-02-15T00:33:52;98719.84;;;12.37;68.65
79413;BME280;68863;49.528;11.010;2024-02-15T00:34:54;98714.38;;;12.27;68.92
79413;BME280;68863;49.528;11.010;2024-02-15T00:35:54;98719.03;;;12.11;69.71
79413;BME280;68863;49.528;11.010;2024-02-15T00:36:54;98714.38;;;12.27;69.09
79413;BME280;68863;49.528;11.010;2024-02-15T00:37:55;98718.91;;;12.38;68.64
79413;BME280;68863;49.528;11.010;2024-02-15T00:38:55;98710.88;;;12.40;68.54
79413;BME280;68863;49.528;11.010;2024-02-15T00:39:56;98718.03;;;12.50;68.37
79413;BME280;68863;49.528;11.010;2024-02-15T00:40:56;98721.53;;;12.38;68.49
79413;BME280;68863;49.528;11.010;2024-02-15T00:41:57;98715.34;;;12.26;69.05
79413;BME280;68863;49.528;11.010;2024-02-15T00:42:57;98720.69;;;12.38;68.81
79413;BME280;68863;49.528;11.010;2024-02-15T00:43:58;98717.66;;;12.31;68.81
79413;BME280;68863;49.528;11.010;2024-02-15T00:44:58;98713.53;;;12.27;68.95
79413;BME280;68863;49.528;11.010;2024-02-15T00:45:58;98710.25;;;12.36;68.76
79413;BME280;68863;49.528;11.010;2024-02-15T00:46:59;98719.13;;;12.35;68.66
79413;BME280;68863;49.528;11.010;2024-02-15T00:47:59;98714.81;;;12.34;68.81
79413;BME280;68863;49.528;11.010;2024-02-15T00:48:59;98720.91;;;12.35;68.83
79413;BME280;68863;49.528;11.010;2024-02-15T00:50:00;98720.59;;;12.26;69.00
79413;BME280;68863;49.528;11.010;2024-02-15T00:51:00;98721.88;;;12.34;68.71
79413;BME280;68863;49.528;11.010;2024-02-15T00:52:01;98723.53;;;12.35;68.53
79413;BME280;68863;49.528;11.010;2024-02-15T00:53:01;98718.91;;;12.38;68.75
79413;BME280;68863;49.528;11.010;2024-02-15T00:54:02;98716.06;;;12.41;68.52
79413;BME280;68863;49.528;11.010;2024-02-15T00:55:03;98711.28;;;12.46;68.17
79413;BME280;68863;49.528;11.010;2024-02-15T00:56:04;98714.97;;;12.44;68.12
79413;BME280;68863;49.528;11.010;2024-02-15T00:57:04;98711.28;;;12.46;68.32
79413;BME280;68863;49.528;11.010;2024-02-15T00:58:05;98712.34;;;12.44;67.85
79413;BME280;68863;49.528;11.010;2024-02-15T00:59:05;98711.19;;;12.48;68.07
79413;BME280;68863;49.528;11.010;2024-02-15T01:00:06;98716.97;;;12.40;68.46
79413;BME280;68863;49.528;11.010;2024-02-15T01:01:10;98716.47;;;12.35;68.34
79413;BME280;68863;49.528;11.010;2024-02-15T01:02:11;98721.31;;;12.41;68.44
79413;BME280;68863;49.528;11.010;2024-02-15T01:03:12;98727.22;;;12.32;68.58
79413;BME280;68863;49.528;11.010;2024-02-15T01:04:13;98715.47;;;12.25;68.88
79413;BME280;68863;49.528;11.010;2024-02-15T01:05:14;98722.19;;;12.29;68.68
79413;BME280;68863;49.528;11.010;2024-02-15T01:06:15;98721.78;;;12.22;69.05
79413;BME280;68863;49.528;11.010;2024-02-15T01:07:16;98716.81;;;12.31;68.74
79413;BME280;68863;49.528;11.010;2024-02-15T01:08:16;98715.38;;;12.01;69.93
79413;BME280;68863;49.528;11.010;2024-02-15T01:09:16;98711.38;;;11.95;70.19
79413;BME280;68863;49.528;11.010;2024-02-15T01:10:17;98708.94;;;12.05;69.83
79413;BME280;68863;49.528;11.010;2024-02-15T01:11:17;98714.22;;;12.18;69.53
79413;BME280;68863;49.528;11.010;2024-02-15T01:12:18;98719.25;;;11.83;70.46
79413;BME280;68863;49.528;11.010;2024-02-15T01:13:18;98712.22;;;11.96;70.15
79413;BME280;68863;49.528;11.010;2024-02-15T01:14:18;98712.88;;;11.87;70.39
79413;BME280;68863;49.528;11.010;2024-02-15T01:15:19;98708.44;;;11.87;70.59
79413;BME280;68863;49.528;11.010;2024-02-15T01:16:20;98716.63;;;11.83;70.75
79413;BME280;68863;49.528;11.010;2024-02-15T01:17:24;98714.72;;;11.97;70.16
79413;BME280;68863;49.528;11.010;2024-02-15T01:18:25;98718.72;;;12.16;69.17
79413;BME280;68863;49.528;11.010;2024-02-15T01:19:27;98718.63;;;12.05;69.74
79413;BME280;68863;49.528;11.010;2024-02-15T01:20:27;98713.34;;;12.05;69.79
79413;BME280;68863;49.528;11.010;2024-02-15T01:21:28;98710.53;;;11.95;70.11
79413;BME280;68863;49.528;11.010;2024-02-15T01:22:28;98717.91;;;12.02;70.02
79413;BME280;68863;49.528;11.010;2024-02-15T01:23:29;98711.50;;;11.94;70.54
79413;BME280;68863;49.528;11.010;2024-02-15T01:24:29;98714.41;;;12.15;70.00
79413;BME280;68863;49.528;11.010;2024-02-15T01:25:30;98714.84;;;12.21;69.40
79413;BME280;68863;49.528;11.010;2024-02-15T01:26:30;98714.13;;;12.07;69.90
79413;BME280;68863;49.528;11.010;2024-02-15T01:27:31;98712.53;;;11.91;70.33
79413;BME280;68863;49.528;11.010;2024-02-15T01:28:31;98711.06;;;11.87;70.77
79413;BME280;68863;49.528;11.010;2024-02-15T01:29:32;98714.19;;;12.05;70.27
79413;BME280;68863;49.528;11.010;2024-02-15T01:30:32;98713.06;;;11.96;70.47
79413;BME280;68863;49.528;11.010;2024-02-15T01:31:33;98714.41;;;11.89;70.35
79413;BME280;68863;49.528;11.010;2024-02-15T01:32:33;98709.78;;;11.80;71.01
79413;BME280;68863;49.528;11.010;2024-02-15T01:33:33;98714.00;;;11.83;70.78
79413;BME280;68863;49.528;11.010;2024-02-15T01:34:34;98711.44;;;11.68;71.32
79413;BME280;68863;49.528;11.010;2024-02-15T01:35:34;98709.78;;;11.80;71.39
79413;BME280;68863;49.528;11.010;2024-02-15T01:36:35;98707.03;;;11.69;71.34
79413;BME280;68863;49.528;11.010;2024-02-15T01:37:36;98711.13;;;11.73;71.42
79413;BME280;68863;49.528;11.010;2024-02-15T01:38:37;98718.31;;;11.71;71.41
79413;BME280;68863;49.528;11.010;2024-02-15T01:39:37;98716.72;;;11.81;71.18
79413;BME280;68863;49.528;11.010;2024-02-15T01:40:37;98704.84;;;11.88;71.01
79413;BME280;68863;49.528;11.010;2024-02-15T01:41:38;98708.72;;;12.08;70.27
79413;BME280;68863;49.528;11.010;2024-02-15T01:42:39;98704.84;;;12.01;70.29
79413;BME280;68863;49.528;11.010;2024-02-15T01:43:45;98703.56;;;12.19;69.81
79413;BME280;68863;49.528;11.010;2024-02-15T01:44:47;98701.97;;;12.17;69.44
79413;BME280;68863;49.528;11.010;2024-02-15T01:45:49;98705.97;;;12.22;69.29
79413;BME280;68863;49.528;11.010;2024-02-15T01:46:51;98698.28;;;12.19;69.54
79413;BME280;68863;49.528;11.010;2024-02-15T01:47:55;98707.47;;;12.14;69.79
79413;BME280;68863;49.528;11.010;2024-02-15T01:48:56;98700.44;;;12.01;70.22
79413;BME280;68863;49.528;11.010;2024-02-15T01:49:57;98711.25;;;11.97;70.41
79413;BME280;68863;49.528;11.010;2024-02-15T01:50:58;98706.94;;;12.09;70.15
79413;BME280;68863;49.528;11.010;2024-02-15T01:52:00;98696.72;;;12.04;70.26
79413;BME280;68863;49.528;11.010;2024-02-15T01:53:04;98707.06;;;12.07;69.97
79413;BME280;68863;49.528;11.010;2024-02-15T01:54:07;98697.03;;;12.12;69.89
79413;BME280;68863;49.528;11.010;2024-02-15T01:55:07;98698.41;;;12.18;69.59
79413;BME280;68863;49.528;11.010;2024-02-15T01:56:09;98696.94;;;12.14;69.48
79413;BME280;68863;49.528;11.010;2024-02-15T01:57:12;98697.34;;;12.20;69.39
79413;BME280;68863;49.528;11.010;2024-02-15T01:58:12;98694.31;;;12.14;69.50
79413;BME280;68863;49.528;11.010;2024-02-15T01:59:15;98691.31;;;12.31;68.93
79413;BME280;68863;49.528;11.010;2024-02-15T02:00:17;98695.31;;;12.24;68.81
79413;BME280;68863;49.528;11.010;2024-02-15T02:01:18;98691.88;;;12.23;69.10
79413;BME280;68863;49.528;11.010;2024-02-15T02:02:20;98690.06;;;12.37;68.64
79413;BME280;68863;49.528;11.010;2024-02-15T02:03:22;98691.41;;;12.42;68.33
79413;BME280;68863;49.528;11.010;2024-02-15T02:04:23;98693.16;;;12.18;69.13
79413;BME280;68863;49.528;11.010;2024-02-15T02:05:23;98691.53;;;12.28;68.92
79413;BME280;68863;49.528;11.010;2024-02-15T02:06:24;98697.16;;;12.11;69.37
79413;BME280;68863;49.528;11.010;2024-02-15T02:07:24;98687.88;;;12.05;69.50
79413;BME280;68863;49.528;11.010;2024-02-15T02:08:26;98694.41;;;12.12;69.72
79413;BME280;68863;49.528;11.010;2024-02-15T02:09:27;98699.88;;;12.22;68.98
79413;BME280;68863;49.528;11.010;2024-02-15T02:10:27;98692.59;;;12.13;69.31
79413;BME280;68863;49.528;11.010;2024-02-15T02:11:32;98696.72;;;12.17;69.49
79413;BME280;68863;49.528;11.010;2024-02-15T02:12:33;98691.44;;;12.17;69.23
79413;BME280;68863;49.528;11.010;2024-02-15T02:13:34;98699.66;;;12.12;69.53
79413;BME280;68863;49.528;11.010;2024-02-15T02:14:35;98692.97;;;11.95;69.79
79413;BME280;68863;49.528;11.010;2024-02-15T02:15:35;98697.81;;;12.01;70.02
79413;BME280;68863;49.528;11.010;2024-02-15T02:16:37;98694.94;;;12.17;69.57
79413;BME280;68863;49.528;11.010;2024-02-15T02:17:39;98688.81;;;12.17;69.51
79413;BME280;68863;49.528;11.010;2024-02-15T02:18:40;98691.69;;;12.14;69.37
79413;BME280;68863;49.528;11.010;2024-02-15T02:19:42;98688.72;;;12.18;69.35
79413;BME280;68863;49.528;11.010;2024-02-15T02:20:42;98695.66;;;12.19;69.37
79413;BME280;68863;49.528;11.010;2024-02-15T02:21:43;98691.44;;;12.17;69.50
79413;BME280;68863;49.528;11.010;2024-02-15T02:22:46;98692.53;;;12.14;69.52
79413;BME280;68863;49.528;11.010;2024-02-15T02:23:52;98698.63;;;12.15;69.30
79413;BME280;68863;49.528;11.010;2024-02-15T02:25:03;98695.56;;;12.21;69.08
79413;BME280;68863;49.528;11.010;2024-02-15T02:26:06;98694.69;;;12.20;69.27
79413;BME280;68863;49.528;11.010;2024-02-15T02:27:07;98697.78;;;12.14;69.51
79413;BME280;68863;49.528;11.010;2024-02-15T02:28:08;98690.06;;;12.24;69.04
79413;BME280;68863;49.528;11.010;2024-02-15T02:29:09;98701.03;;;12.18;69.23
79413;BME280;68863;49.528;11.010;2024-02-15T02:30:14;98696.28;;;12.23;69.10
79413;BME280;68863;49.528;11.010;2024-02-15T02:31:15;98694.56;;;12.35;68.70
79413;BME280;68863;49.528;11.010;2024-02-15T02:32:15;98696.91;;;12.26;68.81
79413;BME280;68863;49.528;11.010;2024-02-15T02:33:16;98685.34;;;12.16;68.95
79413;BME280;68863;49.528;11.010;2024-02-15T02:34:22;98695.19;;;12.01;69.72
79413;BME280;68863;49.528;11.010;2024-02-15T02:35:23;98696.72;;;12.04;70.09
79413;BME280;68863;49.528;11.010;2024-02-15T02:36:23;98695.56;;;11.83;70.33
79413;BME280;68863;49.528;11.010;2024-02-15T02:37:26;98691.91;;;11.98;70.09
79413;BME280;68863;49.528;11.010;2024-02-15T02:38:27;98690.22;;;11.84;70.32
79413;BME280;68863;49.528;11.010;2024-02-15T02:39:27;98703.03;;;11.76;70.75
79413;BME280;68863;49.528;11.010;2024-02-15T02:40:31;98697.72;;;11.90;70.03
79413;BME280;68863;49.528;11.010;2024-02-15T02:41:32;98700.41;;;11.76;71.08
79413;BME280;68863;49.528;11.010;2024-02-15T02:42:32;98694.44;;;11.87;70.79
79413;BME280;68863;49.528;11.010;2024-02-15T02:43:32;98699.28;;;12.06;69.88
79413;BME280;68863;49.528;11.010;2024-02-15T02:44:33;98698.41;;;12.18;69.43
79413;BME280;68863;49.528;11.010;2024-02-15T02:45:33;98694.50;;;12.23;68.99
79413;BME280;68863;49.528;11.010;2024-02-15T02:46:33;98697.16;;;12.11;69.46
79413;BME280;68863;49.528;11.010;2024-02-15T02:47:34;98698.19;;;12.08;69.75
79413;BME280;68863;49.528;11.010;2024-02-15T02:48:34;98693.78;;;11.96;70.19
79413;BME280;68863;49.528;11.010;2024-02-15T02:49:37;98695.59;;;11.95;70.31
79413;BME280;68863;49.528;11.010;2024-02-15T02:50:37;98696.31;;;12.10;69.87
79413;BME280;68863;49.528;11.010;2024-02-15T02:51:38;98699.50;;;12.02;69.96
79413;BME280;68863;49.528;11.010;2024-02-15T02:52:38;98700.72;;;12.22;69.29
79413;BME280;68863;49.528;11.010;2024-02-15T02:53:39;98694.00;;;11.80;70.61
79413;BME280;68863;49.528;11.010;2024-02-15T02:54:39;98701.25;;;11.64;71.23
79413;BME280;68863;49.528;11.010;2024-02-15T02:55:41;98697.38;;;11.82;70.86
79413;BME280;68863;49.528;11.010;2024-02-15T02:56:41;98693.03;;;11.68;71.15
79413;BME280;68863;49.528;11.010;2024-02-15T02:57:43;98696.97;;;11.88;70.84
79413;BME280;68863;49.528;11.010;2024-02-15T02:58:44;98694.53;;;12.11;69.87
79413;BME280;68863;49.528;11.010;2024-02-15T02:59:44;98695.72;;;11.94;70.20
79413;BME280;68863;49.528;11.010;2024-02-15T03:00:45;98703.03;;;11.76;70.98
79413;BME280;68863;49.528;11.010;2024-02-15T03:01:46;98700.94;;;12.07;70.02
79413;BME280;68863;49.528;11.010;2024-02-15T03:02:47;98697.66;;;12.16;69.73
79413;BME280;68863;49.528;11.010;2024-02-15T03:03:47;98695.06;;;12.03;70.06
79413;BME280;68863;49.528;11.010;2024-02-15T03:04:48;98698.19;;;12.21;69.34
79413;BME280;68863;49.528;11.010;2024-02-15T03:05:48;98698.72;;;12.26;69.13
79413;BME280;68863;49.528;11.010;2024-02-15T03:06:48;98703.03;;;12.27;68.89
79413;BME280;68863;49.528;11.010;2024-02-15T03:07:49;98695.25;;;12.13;69.66
79413;BME280;68863;49.528;11.010;2024-02-15T03:08:51;98700.31;;;12.03;69.76
79413;BME280;68863;49.528;11.010;2024-02-15T03:09:54;98697.56;;;12.05;69.88
79413;BME280;68863;49.528;11.010;2024-02-15T03:10:55;98693.56;;;12.12;69.60
79413;BME280;68863;49.528;11.010;2024-02-15T03:11:55;98699.28;;;12.06;69.79
79413;BME280;68863;49.528;11.010;2024-02-15T03:12:57;98697.78;;;12.14;69.44
79413;BME280;68863;49.528;11.010;2024-02-15T03:13:57;98696.41;;;12.09;69.43
79413;BME280;68863;49.528;11.010;2024-02-15T03:14:59;98690.94;;;12.12;69.67
79413;BME280;68863;49.528;11.010;2024-02-15T03:16:00;98694.06;;;12.17;69.52
79413;BME280;68863;49.528;11.010;2024-02-15T03:17:00;98693.16;;;12.18;69.30
79413;BME280;68863;49.528;11.010;2024-02-15T03:18:03;98687.97;;;12.29;68.90
79413;BME280;68863;49.528;11.010;2024-02-15T03:19:09;98692.91;;;12.34;68.60
79413;BME280;68863;49.528;11.010;2024-02-15T03:20:12;98690.06;;;12.37;68.61
79413;BME280;68863;49.528;11.010;2024-02-15T03:21:21;98695.72;;;12.43;68.25
79413;BME280;68863;49.528;11.010;2024-02-15T03:22:22;98690.38;;;12.32;68.48
79413;BME280;68863;49.528;11.010;2024-02-15T03:23:24;98685.06;;;11.95;69.55
79413;BME280;68863;49.528;11.010;2024-02-15T03:24:24;98693.34;;;12.15;69.15
79413;BME280;68863;49.528;11.010;2024-02-15T03:25:26;98689.97;;;12.25;68.90
79413;BME280;68863;49.528;11.010;2024-02-15T03:26:32;98697.97;;;12.37;68.55
79413;BME280;68863;49.528;11.010;2024-02-15T03:27:37;98688.06;;;12.27;68.57
79413;BME280;68863;49.528;11.010;2024-02-15T03:28:37;98686.25;;;12.28;68.69
79413;BME280;68863;49.528;11.010;2024-02-15T03:29:38;98687.97;;;12.16;69.03
79413;BME280;68863;49.528;11.010;2024-02-15T03:30:38;98686.94;;;11.93;69.67
79413;BME280;68863;49.528;11.010;2024-02-15T03:31:39;98688.31;;;11.48;71.37
79413;BME280;68863;49.528;11.010;2024-02-15T03:32:39;98687.56;;;11.46;71.95
79413;BME280;68863;49.528;11.010;2024-02-15T03:33:40;98686.19;;;11.66;71.23
79413;BME280;68863;49.528;11.010;2024-02-15T03:34:41;98684.75;;;11.87;70.42
79413;BME280;68863;49.528;11.010;2024-02-15T03:35:43;98688.75;;;11.93;70.18
79413;BME280;68863;49.528;11.010;2024-02-15T03:36:43;98683.78;;;11.75;70.59
79413;BME280;68863;49.528;11.010;2024-02-15T03:37:44;98691.34;;;11.80;70.65
79413;BME280;68863;49.528;11.010;2024-02-15T03:38:44;98687.91;;;11.67;71.06
79413;BME280;68863;49.528;11.010;2024-02-15T03:39:45;98688.09;;;11.89;70.23
79413;BME280;68863;49.528;11.010;2024-02-15T03:40:45;98690.28;;;11.70;71.06
79413;BME280;68863;49.528;11.010;2024-02-15T03:41:45;98686.63;;;11.72;70.72
79413;BME280;68863;49.528;11.010;2024-02-15T03:42:46;98693.56;;;11.61;71.37
79413;BME280;68863;49.528;11.010;2024-02-15T03:43:47;98686.00;;;11.69;70.58
79413;BME280;68863;49.528;11.010;2024-02-15T03:44:47;98685.38;;;11.78;70.73
79413;BME280;68863;49.528;11.010;2024-02-15T03:45:48;98686.44;;;11.63;70.98
79413;BME280;68863;49.528;11.010;2024-02-15T03:46:48;98689.28;;;11.85;70.79
79413;BME280;68863;49.528;11.010;2024-02-15T03:47:54;98679.88;;;11.81;70.34
79413;BME280;68863;49.528;11.010;2024-02-15T03:48:56;98684.41;;;11.79;70.53
79413;BME280;68863;49.528;11.010;2024-02-15T03:49:57;98685.88;;;11.58;70.82
79413;BME280;68863;49.528;11.010;2024-02-15T03:50:58;98684.50;;;11.65;70.87
79413;BME280;68863;49.528;11.010;2024-02-15T03:51:58;98690.94;;;11.48;71.61
79413;BME280;68863;49.528;11.010;2024-02-15T03:52:59;98694.81;;;11.42;71.48
79413;BME280;68863;49.528;11.010;2024-02-15T03:54:00;98688.41;;;11.72;71.03
79413;BME280;68863;49.528;11.010;2024-02-15T03:55:01;98696.31;;;11.85;70.63
79413;BME280;68863;49.528;11.010;2024-02-15T03:56:03;98689.28;;;11.85;70.26
79413;BME280;68863;49.528;11.010;2024-02-15T03:57:04;98692.22;;;11.93;70.02
79413;BME280;68863;49.528;11.010;2024-02-15T03:58:06;98685.38;;;11.78;70.21
79413;BME280;68863;49.528;11.010;2024-02-15T03:59:07;98686.19;;;11.66;71.02
79413;BME280;68863;49.528;11.010;2024-02-15T04:00:08;98695.25;;;11.62;70.69
79413;BME280;68863;49.528;11.010;2024-02-15T04:01:11;98689.97;;;11.49;70.99
79413;BME280;68863;49.528;11.010;2024-02-15T04:02:13;98689.13;;;11.48;71.40
79413;BME280;68863;49.528;11.010;2024-02-15T04:03:14;98690.41;;;11.56;71.34
79413;BME280;68863;49.528;11.010;2024-02-15T04:04:15;98688.41;;;11.59;71.27
79413;BME280;68863;49.528;11.010;2024-02-15T04:05:15;98685.38;;;11.78;70.32
79413;BME280;68863;49.528;11.010;2024-02-15T04:06:16;98685.78;;;11.72;70.46
79413;BME280;68863;49.528;11.010;2024-02-15T04:07:16;98687.28;;;11.89;69.94
79413;BME280;68863;49.528;11.010;2024-02-15T04:08:17;98692.97;;;11.95;69.67
79413;BME280;68863;49.528;11.010;2024-02-15T04:09:19;98693.16;;;12.05;69.18
79413;BME280;68863;49.528;11.010;2024-02-15T04:10:20;98690.03;;;11.87;69.91
79413;BME280;68863;49.528;11.010;2024-02-15T04:11:21;98683.38;;;11.94;69.67
79413;BME280;68863;49.528;11.010;2024-02-15T04:12:21;98689.56;;;11.81;69.93
79413;BME280;68863;49.528;11.010;2024-02-15T04:13:21;98689.28;;;11.85;69.45
79413;BME280;68863;49.528;11.010;2024-02-15T04:14:22;98691.19;;;11.83;69.41
79413;BME280;68863;49.528;11.010;2024-02-15T04:15:23;98688.75;;;11.67;70.29
79413;BME280;68863;49.528;11.010;2024-02-15T04:16:24;98691.25;;;11.69;70.16
79413;BME280;68863;49.528;11.010;2024-02-15T04:17:25;98688.34;;;11.86;69.45
79413;BME280;68863;49.528;11.010;2024-02-15T04:18:26;98689.38;;;11.96;68.98
79413;BME280;68863;49.528;11.010;2024-02-15T04:19:26;98690.84;;;12.00;68.44
79413;BME280;68863;49.528;11.010;2024-02-15T04:20:26;98697.81;;;12.01;68.62
79413;BME280;68863;49.528;11.010;2024-02-15T04:21:27;98699.69;;;11.99;68.31
79413;BME280;68863;49.528;11.010;2024-02-15T04:22:27;98689.38;;;12.09;68.10
79413;BME280;68863;49.528;11.010;2024-02-15T04:23:28;98689.78;;;12.03;68.20
79413;BME280;68863;49.528;11.010;2024-02-15T04:24:29;98692.22;;;12.06;67.74
79413;BME280;68863;49.528;11.010;2024-02-15T04:25:29;98690.44;;;12.07;68.32
79413;BME280;68863;49.528;11.010;2024-02-15T04:26:31;98690.84;;;12.00;68.10
79413;BME280;68863;49.528;11.010;2024-02-15T04:27:32;98691.91;;;12.11;67.69
79413;BME280;68863;49.528;11.010;2024-02-15T04:28:33;98691.16;;;12.09;67.38
79413;BME280;68863;49.528;11.010;2024-02-15T04:29:34;98693.69;;;12.10;67.51
79413;BME280;68863;49.528;11.010;2024-02-15T04:30:34;98689.97;;;12.13;67.43
79413;BME280;68863;49.528;11.010;2024-02-15T04:31:38;98697.38;;;12.08;67.54
79413;BME280;68863;49.528;11.010;2024-02-15T04:32:39;98689.47;;;12.08;67.47
79413;BME280;68863;49.528;11.010;2024-02-15T04:33:40;98690.84;;;12.00;67.72
79413;BME280;68863;49.528;11.010;2024-02-15T04:34:41;98695.47;;;11.71;68.59
79413;BME280;68863;49.528;11.010;2024-02-15T04:35:42;98696.13;;;11.88;67.91
79413;BME280;68863;49.528;11.010;2024-02-15T04:36:47;98694.81;;;11.81;68.42
79413;BME280;68863;49.528;11.010;2024-02-15T04:37:53;98692.94;;;11.83;68.16
79413;BME280;68863;49.528;11.010;2024-02-15T04:38:54;98696.75;;;11.91;68.23
79413;BME280;68863;49.528;11.010;2024-02-15T04:39:54;98695.72;;;11.94;67.32
79413;BME280;68863;49.528;11.010;2024-02-15T04:40:56;98697.28;;;11.96;67.35
79413;BME280;68863;49.528;11.010;2024-02-15T04:41:57;98696.25;;;11.86;67.75
79413;BME280;68863;49.528;11.010;2024-02-15T04:42:58;98700.22;;;11.66;68.74
79413;BME280;68863;49.528;11.010;2024-02-15T04:43:58;98700.94;;;11.68;68.64
79413;BME280;68863;49.528;11.010;2024-02-15T04:44:59;98703.56;;;11.68;68.95
79413;BME280;68863;49.528;11.010;2024-02-15T04:45:59;98699.44;;;11.77;68.32
79413;BME280;68863;49.528;11.010;2024-02-15T04:47:03;98697.66;;;11.52;69.18
79413;BME280;68863;49.528;11.010;2024-02-15T04:48:06;98700.72;;;11.59;69.25
79413;BME280;68863;49.528;11.010;2024-02-15T04:49:07;98699.03;;;11.45;69.79
79413;BME280;68863;49.528;11.010;2024-02-15T04:50:08;98702.47;;;11.45;69.88
79413;BME280;68863;49.528;11.010;2024-02-15T04:51:10;98696.72;;;11.40;70.41
79413;BME280;68863;49.528;11.010;2024-02-15T04:52:11;98697.78;;;11.63;69.52
79413;BME280;68863;49.528;11.010;2024-02-15T04:53:11;98695.13;;;11.38;70.14
79413;BME280;68863;49.528;11.010;2024-02-15T04:54:11;98704.44;;;11.16;71.10
79413;BME280;68863;49.528;11.010;2024-02-15T04:55:13;98693.31;;;11.25;71.21
79413;BME280;68863;49.528;11.010;2024-02-15T04:56:15;98692.47;;;11.25;70.82
79413;BME280;68863;49.528;11.010;2024-02-15T04:57:17;98691.44;;;11.53;70.22
79413;BME280;68863;49.528;11.010;2024-02-15T04:58:17;98690.81;;;11.49;69.75
79413;BME280;68863;49.528;11.010;2024-02-15T04:59:18;98692.41;;;11.52;69.71
79413;BME280;68863;49.528;11.010;2024-02-15T05:00:19;98695.75;;;11.41;69.71
79413;BME280;68863;49.528;11.010;2024-02-15T05:01:21;98695.88;;;11.52;69.34
79413;BME280;68863;49.528;11.010;2024-02-15T05:02:22;98688.53;;;11.70;68.75
79413;BME280;68863;49.528;11.010;2024-02-15T05:03:24;98686.72;;;11.58;69.04
79413;BME280;68863;49.528;11.010;2024-02-15T05:04:24;98691.44;;;11.66;68.57
79413;BME280;68863;49.528;11.010;2024-02-15T05:05:25;98694.09;;;11.53;68.79
79413;BME280;68863;49.528;11.010;2024-02-15T05:06:27;98693.13;;;11.54;68.88
79413;BME280;68863;49.528;11.010;2024-02-15T05:07:29;98691.88;;;11.60;68.37
79413;BME280;68863;49.528;11.010;2024-02-15T05:08:30;98696.41;;;11.58;68.64
79413;BME280;68863;49.528;11.010;2024-02-15T05:09:32;98700.50;;;11.49;68.51
79413;BME280;68863;49.528;11.010;2024-02-15T05:10:32;98694.00;;;11.67;68.25
79413;BME280;68863;49.528;11.010;2024-02-15T05:11:36;98694.63;;;11.71;67.63
79413;BME280;68863;49.528;11.010;2024-02-15T05:12:39;98702.94;;;11.52;68.37
79413;BME280;68863;49.528;11.010;2024-02-15T05:13:40;98699.03;;;11.58;68.26
79413;BME280;68863;49.528;11.010;2024-02-15T05:14:41;98697.25;;;11.71;67.85
79413;BME280;68863;49.528;11.010;2024-02-15T05:15:41;98700.72;;;11.59;68.45
79413;BME280;68863;49.528;11.010;2024-02-15T05:16:41;98692.28;;;11.53;68.30
79413;BME280;68863;49.528;11.010;2024-02-15T05:17:48;98694.84;;;11.55;68.42
79413;BME280;68863;49.528;11.010;2024-02-15T05:18:48;98696.56;;;11.29;69.13
79413;BME280;68863;49.528;11.010;2024-02-15T05:19:51;98701.06;;;11.14;70.03